createdAt,value
2023-03-16T00:03:53.684Z,99643.31
2023-03-16T00:08:59.059Z,99631.88
2023-03-16T00:14:04.111Z,99621.56
2023-03-16T00:19:06.763Z,99617.00
2023-03-16T00:24:12.746Z,99613.88
2023-03-16T00:29:15.751Z,99614.00
2023-03-16T00:34:18.565Z,99613.50
2023-03-16T00:39:22.714Z,99601.31
2023-03-16T00:44:25.553Z,99599.69
2023-03-16T00:49:28.678Z,99599.88
2023-03-16T00:54:33.635Z,99604.72
2023-03-16T00:59:37.861Z,99601.31
2023-03-16T01:04:42.257Z,99591.00
2023-03-16T01:09:46.375Z,99599.75
2023-03-16T01:14:49.368Z,99603.66
2023-03-16T01:19:52.441Z,99584.44
2023-03-16T01:24:58.357Z,99580.13
2023-03-16T01:30:02.187Z,99581.44
2023-03-16T01:35:06.606Z,99567.94
2023-03-16T01:40:12.998Z,99570.56
2023-03-16T01:45:53.761Z,99564.81
2023-03-16T01:50:57.691Z,99552.09
2023-03-16T01:56:04.170Z,99545.94
2023-03-16T02:01:06.987Z,99535.66
2023-03-16T02:06:12.262Z,99531.91
2023-03-16T02:11:22.512Z,99523.41
2023-03-16T02:16:42.051Z,99519.91
2023-03-16T02:21:54.340Z,99518.44
2023-03-16T02:27:01.554Z,99487.72
2023-03-16T02:32:10.240Z,99502.13
2023-03-16T02:37:13.679Z,99500.00
2023-03-16T02:42:19.789Z,99488.38
2023-03-16T02:47:29.760Z,99479.69
2023-03-16T02:52:32.600Z,99487.66
2023-03-16T02:57:35.954Z,99483.22
2023-03-16T03:02:45.978Z,99480.34
2023-03-16T03:07:48.833Z,99474.72
2023-03-16T03:12:51.994Z,99475.75
2023-03-16T03:17:56.231Z,99475.47
2023-03-16T03:22:59.085Z,99477.31
2023-03-16T03:28:03.035Z,99471.03
2023-03-16T03:33:08.386Z,99477.06
2023-03-16T03:38:11.519Z,99470.41
2023-03-16T03:43:14.963Z,99479.63
2023-03-16T03:48:21.628Z,99476.13
2023-03-16T03:53:24.653Z,99465.38
2023-03-16T03:58:46.066Z,99452.06
2023-03-16T04:03:56.105Z,99460.56
2023-03-16T04:08:59.033Z,99458.78
2023-03-16T04:14:03.784Z,99453.63
2023-03-16T04:19:07.972Z,99453.69
2023-03-16T04:24:14.784Z,99443.19
2023-03-16T04:29:18.766Z,99435.91
2023-03-16T04:34:24.973Z,99444.09
2023-03-16T04:39:31.028Z,99434.13
2023-03-16T04:44:33.847Z,99422.88
2023-03-16T04:49:38.332Z,99418.34
2023-03-16T04:54:41.315Z,99416.03
2023-03-16T04:59:45.179Z,99404.44
2023-03-16T05:04:57.800Z,99410.06
2023-03-16T05:10:00.830Z,99405.06
2023-03-16T05:15:03.653Z,99407.13
2023-03-16T05:20:16.476Z,99413.34
2023-03-16T05:25:25.213Z,99415.81
2023-03-16T05:30:31.169Z,99411.50
2023-03-16T05:35:38.139Z,99409.19
2023-03-16T05:40:46.148Z,99418.03
2023-03-16T05:46:01.522Z,99407.53
2023-03-16T05:51:06.491Z,99412.84
2023-03-16T05:56:09.730Z,99412.19
2023-03-16T06:01:17.221Z,99422.41
2023-03-16T06:06:22.566Z,99423.22
2023-03-16T06:11:45.569Z,99431.28
2023-03-16T06:16:51.135Z,99434.25
2023-03-16T06:22:05.742Z,99424.59
2023-03-16T06:27:08.821Z,99417.94
2023-03-16T06:32:23.798Z,99426.31
2023-03-16T06:37:28.086Z,99419.59
2023-03-16T06:42:31.094Z,99421.09
2023-03-16T06:47:34.189Z,99427.59
2023-03-16T06:52:38.743Z,99420.09
2023-03-16T06:57:41.978Z,99437.88
2023-03-16T07:02:44.749Z,99434.84
2023-03-16T07:07:50.329Z,99438.00
2023-03-16T07:12:53.123Z,99437.69
2023-03-16T07:17:56.154Z,99438.19
2023-03-16T07:23:00.309Z,99439.19
2023-03-16T07:28:03.362Z,99435.03
2023-03-16T07:33:11.838Z,99435.88
2023-03-16T07:38:16.811Z,99440.19
2023-03-16T07:43:19.562Z,99439.38
2023-03-16T07:48:25.994Z,99437.22
2023-03-16T07:53:37.076Z,99432.56
2023-03-16T07:58:53.934Z,99432.41
2023-03-16T08:03:56.694Z,99431.22
2023-03-16T08:09:02.219Z,99418.63
2023-03-16T08:14:09.679Z,99419.75
2023-03-16T08:19:38.715Z,99421.00
2023-03-16T08:24:45.470Z,99427.31
2023-03-16T08:29:53.769Z,99434.00
2023-03-16T08:35:00.428Z,99430.22
2023-03-16T08:40:10.668Z,99422.59
2023-03-16T08:45:14.818Z,99404.41
2023-03-16T08:50:20.830Z,99407.72
2023-03-16T08:55:24.897Z,99411.94
2023-03-16T09:00:28.890Z,99418.38
2023-03-16T09:06:19.677Z,99419.44
2023-03-16T09:11:26.014Z,99424.41
2023-03-16T09:16:30.805Z,99428.75
2023-03-16T09:21:35.049Z,99412.47
2023-03-16T09:26:39.871Z,99406.03
2023-03-16T09:31:43.313Z,99411.81
2023-03-16T09:36:46.208Z,99412.00
2023-03-16T09:41:55.031Z,99401.06
2023-03-16T09:47:00.782Z,99409.53
2023-03-16T09:52:09.982Z,99399.19
2023-03-16T09:57:29.797Z,99393.19
2023-03-16T10:02:51.044Z,99400.22
2023-03-16T10:08:02.304Z,99384.31
2023-03-16T10:13:07.046Z,99376.03
2023-03-16T10:18:15.462Z,99370.03
2023-03-16T10:23:20.716Z,99367.53
2023-03-16T10:29:47.459Z,99363.41
2023-03-16T10:35:34.096Z,99367.13
2023-03-16T10:40:38.644Z,99357.56
2023-03-16T10:45:43.889Z,99362.94
2023-03-16T10:50:52.005Z,99360.66
2023-03-16T10:55:59.681Z,99352.63
2023-03-16T11:01:03.471Z,99333.59
2023-03-16T11:06:17.895Z,99334.41
2023-03-16T11:17:53.408Z,99309.13
2023-03-16T11:22:57.536Z,99302.19
2023-03-16T11:28:08.785Z,99305.47
2023-03-16T11:33:14.007Z,99302.59
2023-03-16T11:38:20.601Z,99292.28
2023-03-16T11:43:49.485Z,99266.88
2023-03-16T11:49:02.779Z,99277.38
2023-03-16T11:54:18.524Z,99258.38
2023-03-16T11:59:55.447Z,99262.94
2023-03-16T12:05:30.284Z,99270.78
2023-03-16T12:10:37.591Z,99256.13
2023-03-16T12:15:44.837Z,99249.94
2023-03-16T12:20:51.935Z,99235.72
2023-03-16T12:25:59.757Z,99228.09
2023-03-16T12:31:09.862Z,99211.56
2023-03-16T12:36:32.934Z,99198.56
2023-03-16T12:41:42.729Z,99200.22
2023-03-16T12:46:52.713Z,99190.13
2023-03-16T12:52:03.792Z,99183.31
2023-03-16T12:57:09.668Z,99182.91
2023-03-16T13:02:16.510Z,99165.38
2023-03-16T13:07:21.519Z,99158.75
2023-03-16T13:12:28.424Z,99157.75
2023-03-16T13:17:32.928Z,99149.91
2023-03-16T13:22:46.503Z,99152.38
2023-03-16T13:27:53.487Z,99136.91
2023-03-16T13:32:58.186Z,99131.38
2023-03-16T13:38:05.646Z,99135.50
2023-03-16T13:43:16.350Z,99114.00
2023-03-16T13:48:20.366Z,99105.38
2023-03-16T13:53:25.557Z,99102.50
2023-03-16T13:58:37.809Z,99080.63
2023-03-16T14:03:42.065Z,99069.09
2023-03-16T14:08:48.308Z,99055.91
2023-03-16T14:13:56.699Z,99041.91
2023-03-16T14:19:02.728Z,99032.81
2023-03-16T14:24:07.229Z,99025.81
2023-03-16T14:29:18.640Z,99022.09
2023-03-16T14:34:28.814Z,99000.06
2023-03-16T14:40:07.382Z,98994.09
2023-03-16T14:45:29.161Z,98999.88
2023-03-16T14:50:37.712Z,98997.00
2023-03-16T14:55:40.461Z,98989.16
2023-03-16T15:00:52.581Z,98982.34
2023-03-16T15:05:55.946Z,98994.09
2023-03-16T15:11:00.734Z,98980.50
2023-03-16T15:16:05.676Z,98982.34
2023-03-16T15:21:12.712Z,98985.00
2023-03-16T15:26:17.662Z,98980.50
2023-03-16T15:31:22.063Z,98980.50
2023-03-16T15:36:24.872Z,98983.16
2023-03-16T15:41:35.056Z,98979.66
2023-03-16T15:46:45.731Z,98978.41
2023-03-16T15:51:48.527Z,98968.94
2023-03-16T15:56:54.535Z,98976.97
2023-03-16T16:01:58.943Z,98955.94
2023-03-16T16:07:02.802Z,98956.56
2023-03-16T16:12:06.132Z,98942.56
2023-03-16T16:17:13.417Z,98935.97
2023-03-16T16:22:16.446Z,98940.50
2023-03-16T16:27:19.186Z,98940.50
2023-03-16T16:32:25.641Z,98943.16
2023-03-16T16:37:28.621Z,98936.78
2023-03-16T16:42:31.517Z,98935.75
2023-03-16T16:47:38.036Z,98916.19
2023-03-16T16:52:40.784Z,98919.06
2023-03-16T16:57:44.348Z,98923.19
2023-03-16T17:02:50.834Z,98928.53
2023-03-16T17:07:54.133Z,98926.84
2023-03-16T17:12:57.821Z,98930.56
2023-03-16T17:18:05.011Z,98934.88
2023-03-16T17:23:22.697Z,98928.91
2023-03-16T17:28:26.780Z,98921.47
2023-03-16T17:33:30.877Z,98933.19
2023-03-16T17:38:33.904Z,98948.22
2023-03-16T17:43:36.597Z,98940.81
2023-03-16T17:48:40.632Z,98939.97
2023-03-16T17:53:43.650Z,98941.00
2023-03-16T17:58:47.746Z,98950.66
2023-03-16T18:03:51.748Z,98955.41
2023-03-16T18:08:54.496Z,98949.44
2023-03-16T18:13:57.342Z,98958.91
2023-03-16T18:19:04.225Z,98955.56
2023-03-16T18:24:09.608Z,98953.53
2023-03-16T18:29:13.706Z,98952.28
2023-03-16T18:34:21.178Z,98949.81
2023-03-16T18:39:23.908Z,98956.38
2023-03-16T18:44:26.852Z,98951.03
2023-03-16T18:49:34.058Z,98946.09
2023-03-16T18:54:36.750Z,98942.78
2023-03-16T18:59:39.482Z,98936.38
2023-03-16T19:04:51.327Z,98941.91
2023-03-16T19:09:54.179Z,98946.28
2023-03-16T19:14:56.806Z,98943.19
2023-03-16T19:20:00.899Z,98934.13
2023-03-16T19:25:03.785Z,98939.28
2023-03-16T19:30:07.510Z,98944.81
2023-03-16T19:35:15.422Z,98946.50
2023-03-16T19:40:28.554Z,98942.16
2023-03-16T19:45:33.777Z,98942.78
2023-03-16T19:50:37.810Z,98943.19
2023-03-16T19:55:41.750Z,98941.75
2023-03-16T20:00:46.224Z,98940.28
2023-03-16T20:05:50.287Z,98942.13
2023-03-16T20:10:55.407Z,98931.22
2023-03-16T20:15:58.073Z,98918.50
2023-03-16T20:21:02.163Z,98921.34
2023-03-16T20:33:06.913Z,98893.38
2023-03-16T20:43:48.240Z,98885.31
2023-03-16T20:48:51.009Z,98880.19
2023-03-16T21:00:48.928Z,98871.94
2023-03-16T21:05:53.258Z,98860.66
2023-03-16T21:17:59.595Z,98841.72
2023-03-16T21:23:03.534Z,98842.13
2023-03-16T21:28:32.895Z,98839.63
2023-03-16T21:33:46.580Z,98833.69
2023-03-16T21:38:50.131Z,98828.53
2023-03-16T21:43:54.405Z,98822.78
2023-03-16T21:48:58.625Z,98831.03
2023-03-16T21:54:01.604Z,98817.25
2023-03-16T21:59:04.542Z,98813.53
2023-03-16T22:04:11.543Z,98804.69
2023-03-16T22:09:18.489Z,98786.34
2023-03-16T22:14:21.862Z,98780.19
2023-03-16T22:19:27.007Z,98784.72
2023-03-16T22:24:34.510Z,98780.81
2023-03-16T22:29:37.876Z,98795.00
2023-03-16T22:34:44.055Z,98785.13
2023-03-16T22:39:47.273Z,98760.84
2023-03-16T22:44:59.333Z,98759.41
2023-03-16T22:50:03.582Z,98756.31
2023-03-16T22:55:08.217Z,98757.78
2023-03-16T23:00:14.066Z,98770.72
2023-03-16T23:05:23.125Z,98764.16
2023-03-16T23:10:28.757Z,98754.88
2023-03-16T23:15:32.218Z,98755.50
2023-03-16T23:20:36.363Z,98757.38
2023-03-16T23:25:49.085Z,98743.56
2023-03-16T23:30:51.870Z,98752.84
2023-03-16T23:35:55.964Z,98740.28
2023-03-16T23:40:58.705Z,98740.69
2023-03-16T23:46:01.425Z,98737.81
2023-03-16T23:51:07.110Z,98743.78
2023-03-16T23:56:10.589Z,98741.50
